Terminal Aerodrome Forecast
Issued by NWS Sioux Falls, SD

Home | Current Version | Previous Version | Text Only | Print | Product List | Glossary On
Versions: 1 2 3 4 5 6 7 8 9 10 11 12 13 14 15
000
FTUS43 KFSD 220520
TAFHON
TAF
KHON 220520Z 2206/2306 26006KT P6SM SKC
     FM221400 22006KT P6SM SKC
     FM221800 21013G19KT P6SM FEW250
     FM222300 18008KT P6SM FEW110
     FM230500 22007KT P6SM SCT080=

USA.gov is the U.S. government's official web portal to all federal, state and local government web resources and services.